Terminal Aerodrome Forecast
Issued by NWS

Home | Current Version | Previous Version | Text Only | Print | Product List | Glossary Off
Versions: 1 2 3 4 5 6 7 8 9 10 11 12 13 14 15 16 17 18

209
FTUS43 KICT 181122
TAFSLN
TAF
KSLN 181122Z 1812/1912 13011KT P6SM VCSH SCT006 BKN024
     FM181500 17007KT P6SM VCTS OVC035CB
     FM181800 18009KT P6SM BKN060
     FM182100 18010KT P6SM SCT110=

USA.gov is the U.S. government's official web portal to all federal, state and local government web resources and services.